sensor_id;sensor_type;location;lat;lon;timestamp;temperature;humidity
8099;DHT22;4092;47.876;9.372;2022-12-18T00:02:07;-5.50;99.90
8099;DHT22;4092;47.876;9.372;2022-12-18T00:04:38;-5.50;99.90
8099;DHT22;4092;47.876;9.372;2022-12-18T00:07:05;-5.50;99.90
8099;DHT22;4092;47.876;9.372;2022-12-18T00:09:32;-5.50;99.90
8099;DHT22;4092;47.876;9.372;2022-12-18T00:11:59;-5.50;99.90
8099;DHT22;4092;47.876;9.372;2022-12-18T00:14:26;-5.50;99.90
8099;DHT22;4092;47.876;9.372;2022-12-18T00:16:53;-5.50;99.90
8099;DHT22;4092;47.876;9.372;2022-12-18T00:19:20;-5.50;99.90
8099;DHT22;4092;47.876;9.372;2022-12-18T00:21:49;-5.50;99.90
8099;DHT22;4092;47.876;9.372;2022-12-18T00:24:16;-5.50;99.90
8099;DHT22;4092;47.876;9.372;2022-12-18T00:26:43;-5.50;99.90
8099;DHT22;4092;47.876;9.372;2022-12-18T00:29:12;-5.50;99.90
8099;DHT22;4092;47.876;9.372;2022-12-18T00:31:40;-5.50;99.90
8099;DHT22;4092;47.876;9.372;2022-12-18T00:34:10;-5.50;99.90
8099;DHT22;4092;47.876;9.372;2022-12-18T00:36:37;-5.40;99.90
8099;DHT22;4092;47.876;9.372;2022-12-18T00:39:06;-5.40;99.90
8099;DHT22;4092;47.876;9.372;2022-12-18T00:41:33;-5.40;99.90
8099;DHT22;4092;47.876;9.372;2022-12-18T00:44:18;-5.40;99.90
8099;DHT22;4092;47.876;9.372;2022-12-18T00:46:47;-5.40;99.90
8099;DHT22;4092;47.876;9.372;2022-12-18T00:49:15;-5.40;99.90
8099;DHT22;4092;47.876;9.372;2022-12-18T00:51:42;-5.30;99.90
8099;DHT22;4092;47.876;9.372;2022-12-18T00:54:11;-5.40;99.90
8099;DHT22;4092;47.876;9.372;2022-12-18T00:56:38;-5.30;99.90
8099;DHT22;4092;47.876;9.372;2022-12-18T00:59:05;-5.30;99.90
8099;DHT22;4092;47.876;9.372;2022-12-18T01:01:33;-5.30;99.90
8099;DHT22;4092;47.876;9.372;2022-12-18T01:04:01;-5.30;99.90
8099;DHT22;4092;47.876;9.372;2022-12-18T01:06:29;-5.30;99.90
8099;DHT22;4092;47.876;9.372;2022-12-18T01:08:57;-5.30;99.90
8099;DHT22;4092;47.876;9.372;2022-12-18T01:11:25;-5.30;99.90
8099;DHT22;4092;47.876;9.372;2022-12-18T01:13:53;-5.30;99.90
8099;DHT22;4092;47.876;9.372;2022-12-18T01:16:22;-5.30;99.90
8099;DHT22;4092;47.876;9.372;2022-12-18T01:18:51;-5.30;99.90
8099;DHT22;4092;47.876;9.372;2022-12-18T01:21:19;-5.40;99.90
8099;DHT22;4092;47.876;9.372;2022-12-18T01:23:46;-5.40;99.90
8099;DHT22;4092;47.876;9.372;2022-12-18T01:26:17;-5.40;99.90
8099;DHT22;4092;47.876;9.372;2022-12-18T01:28:46;-5.40;99.90
8099;DHT22;4092;47.876;9.372;2022-12-18T01:31:15;-5.40;99.90
8099;DHT22;4092;47.876;9.372;2022-12-18T01:33:43;-5.40;99.90
8099;DHT22;4092;47.876;9.372;2022-12-18T01:36:16;-5.40;99.90
8099;DHT22;4092;47.876;9.372;2022-12-18T01:38:44;-5.30;99.90
8099;DHT22;4092;47.876;9.372;2022-12-18T01:41:11;-5.40;99.90
8099;DHT22;4092;47.876;9.372;2022-12-18T01:43:49;-5.40;99.90
8099;DHT22;4092;47.876;9.372;2022-12-18T01:46:17;-5.40;99.90
8099;DHT22;4092;47.876;9.372;2022-12-18T01:48:48;-5.40;99.90
8099;DHT22;4092;47.876;9.372;2022-12-18T01:51:15;-5.30;99.90
8099;DHT22;4092;47.876;9.372;2022-12-18T01:53:44;-5.20;99.90
8099;DHT22;4092;47.876;9.372;2022-12-18T01:56:13;-5.20;99.90
8099;DHT22;4092;47.876;9.372;2022-12-18T01:58:48;-5.20;99.90
8099;DHT22;4092;47.876;9.372;2022-12-18T02:01:18;-5.20;99.90
8099;DHT22;4092;47.876;9.372;2022-12-18T02:03:45;-5.20;99.90
8099;DHT22;4092;47.876;9.372;2022-12-18T02:06:15;-5.20;99.90
8099;DHT22;4092;47.876;9.372;2022-12-18T02:08:50;-5.20;99.90
8099;DHT22;4092;47.876;9.372;2022-12-18T02:11:26;-5.20;99.90
8099;DHT22;4092;47.876;9.372;2022-12-18T02:14:04;-5.20;99.90
8099;DHT22;4092;47.876;9.372;2022-12-18T02:16:39;-5.20;99.90
8099;DHT22;4092;47.876;9.372;2022-12-18T02:19:20;-5.20;99.90
8099;DHT22;4092;47.876;9.372;2022-12-18T02:21:54;-5.10;99.90
8099;DHT22;4092;47.876;9.372;2022-12-18T02:24:33;-5.20;99.90
8099;DHT22;4092;47.876;9.372;2022-12-18T02:27:05;-5.10;99.90
8099;DHT22;4092;47.876;9.372;2022-12-18T02:29:39;-5.20;99.90
8099;DHT22;4092;47.876;9.372;2022-12-18T02:32:11;-5.10;99.90
8099;DHT22;4092;47.876;9.372;2022-12-18T02:34:41;-5.00;99.90
8099;DHT22;4092;47.876;9.372;2022-12-18T02:37:13;-5.20;99.90
8099;DHT22;4092;47.876;9.372;2022-12-18T02:39:43;-5.20;99.90
8099;DHT22;4092;47.876;9.372;2022-12-18T02:42:13;-5.20;99.90
8099;DHT22;4092;47.876;9.372;2022-12-18T02:44:44;-5.30;99.90
8099;DHT22;4092;47.876;9.372;2022-12-18T02:47:14;-5.20;99.90
8099;DHT22;4092;47.876;9.372;2022-12-18T02:49:48;-5.10;99.90
8099;DHT22;4092;47.876;9.372;2022-12-18T02:52:25;-5.10;99.90
8099;DHT22;4092;47.876;9.372;2022-12-18T02:55:03;-5.10;99.90
8099;DHT22;4092;47.876;9.372;2022-12-18T02:57:40;-5.10;99.90
8099;DHT22;4092;47.876;9.372;2022-12-18T03:00:12;-5.10;99.90
8099;DHT22;4092;47.876;9.372;2022-12-18T03:02:45;-5.20;99.90
8099;DHT22;4092;47.876;9.372;2022-12-18T03:05:16;-5.30;99.90
8099;DHT22;4092;47.876;9.372;2022-12-18T03:07:47;-5.20;99.90
8099;DHT22;4092;47.876;9.372;2022-12-18T03:10:19;-5.20;99.90
8099;DHT22;4092;47.876;9.372;2022-12-18T03:12:52;-5.20;99.90
8099;DHT22;4092;47.876;9.372;2022-12-18T03:15:25;-5.20;99.90
8099;DHT22;4092;47.876;9.372;2022-12-18T03:17:57;-5.20;99.90
8099;DHT22;4092;47.876;9.372;2022-12-18T03:20:28;-5.10;99.90
8099;DHT22;4092;47.876;9.372;2022-12-18T03:22:59;-5.10;99.90
8099;DHT22;4092;47.876;9.372;2022-12-18T03:25:30;-5.10;99.90
8099;DHT22;4092;47.876;9.372;2022-12-18T03:28:00;-5.10;99.90
8099;DHT22;4092;47.876;9.372;2022-12-18T03:30:29;-5.10;99.90
8099;DHT22;4092;47.876;9.372;2022-12-18T03:33:02;-5.10;99.90
8099;DHT22;4092;47.876;9.372;2022-12-18T03:35:35;-5.10;99.90
8099;DHT22;4092;47.876;9.372;2022-12-18T03:38:03;-5.10;99.90
8099;DHT22;4092;47.876;9.372;2022-12-18T03:40:35;-5.10;99.90
8099;DHT22;4092;47.876;9.372;2022-12-18T03:43:10;-5.10;99.90
8099;DHT22;4092;47.876;9.372;2022-12-18T03:45:44;-5.10;99.90
8099;DHT22;4092;47.876;9.372;2022-12-18T03:48:17;-5.20;99.90
8099;DHT22;4092;47.876;9.372;2022-12-18T03:50:51;-5.10;99.90
8099;DHT22;4092;47.876;9.372;2022-12-18T03:53:29;-5.10;99.90
8099;DHT22;4092;47.876;9.372;2022-12-18T03:55:59;-5.10;99.90
8099;DHT22;4092;47.876;9.372;2022-12-18T03:58:29;-5.10;99.90
8099;DHT22;4092;47.876;9.372;2022-12-18T04:01:01;-5.20;99.90
8099;DHT22;4092;47.876;9.372;2022-12-18T04:03:30;-5.10;99.90
8099;DHT22;4092;47.876;9.372;2022-12-18T04:05:59;-5.00;99.90
8099;DHT22;4092;47.876;9.372;2022-12-18T04:08:27;-4.90;99.90
8099;DHT22;4092;47.876;9.372;2022-12-18T04:10:54;-5.00;99.90
8099;DHT22;4092;47.876;9.372;2022-12-18T04:13:28;-5.00;99.90
8099;DHT22;4092;47.876;9.372;2022-12-18T04:15:55;-5.00;99.90
8099;DHT22;4092;47.876;9.372;2022-12-18T04:18:22;-5.00;99.90
8099;DHT22;4092;47.876;9.372;2022-12-18T04:20:49;-5.00;99.90
8099;DHT22;4092;47.876;9.372;2022-12-18T04:23:16;-5.00;99.90
8099;DHT22;4092;47.876;9.372;2022-12-18T04:25:43;-5.00;99.90
8099;DHT22;4092;47.876;9.372;2022-12-18T04:28:10;-5.00;99.90
8099;DHT22;4092;47.876;9.372;2022-12-18T04:30:39;-5.00;99.90
8099;DHT22;4092;47.876;9.372;2022-12-18T04:33:08;-4.90;99.90
8099;DHT22;4092;47.876;9.372;2022-12-18T04:35:35;-4.90;99.90
8099;DHT22;4092;47.876;9.372;2022-12-18T04:38:02;-4.90;99.90
8099;DHT22;4092;47.876;9.372;2022-12-18T04:40:29;-5.00;99.90
8099;DHT22;4092;47.876;9.372;2022-12-18T04:42:56;-5.00;99.90
8099;DHT22;4092;47.876;9.372;2022-12-18T04:45:23;-5.00;99.90
8099;DHT22;4092;47.876;9.372;2022-12-18T04:47:51;-5.00;99.90
8099;DHT22;4092;47.876;9.372;2022-12-18T04:50:18;-5.00;99.90
8099;DHT22;4092;47.876;9.372;2022-12-18T04:52:45;-4.90;99.90
8099;DHT22;4092;47.876;9.372;2022-12-18T04:55:13;-5.00;99.90
8099;DHT22;4092;47.876;9.372;2022-12-18T04:57:40;-4.90;99.90
8099;DHT22;4092;47.876;9.372;2022-12-18T05:00:08;-4.90;99.90
8099;DHT22;4092;47.876;9.372;2022-12-18T05:02:35;-4.90;99.90
8099;DHT22;4092;47.876;9.372;2022-12-18T05:05:04;-4.90;99.90
8099;DHT22;4092;47.876;9.372;2022-12-18T05:07:31;-4.80;99.90
8099;DHT22;4092;47.876;9.372;2022-12-18T05:09:58;-4.80;99.90
8099;DHT22;4092;47.876;9.372;2022-12-18T05:12:25;-4.80;99.90
8099;DHT22;4092;47.876;9.372;2022-12-18T05:14:52;-4.80;99.90
8099;DHT22;4092;47.876;9.372;2022-12-18T05:17:19;-4.90;99.90
8099;DHT22;4092;47.876;9.372;2022-12-18T05:19:46;-4.80;99.90
8099;DHT22;4092;47.876;9.372;2022-12-18T05:22:15;-4.80;99.90
8099;DHT22;4092;47.876;9.372;2022-12-18T05:24:42;-4.70;99.90
8099;DHT22;4092;47.876;9.372;2022-12-18T05:27:09;-4.70;99.90
8099;DHT22;4092;47.876;9.372;2022-12-18T05:29:36;-4.70;99.90
8099;DHT22;4092;47.876;9.372;2022-12-18T05:32:03;-4.80;99.90
8099;DHT22;4092;47.876;9.372;2022-12-18T05:34:30;-4.80;99.90
8099;DHT22;4092;47.876;9.372;2022-12-18T05:36:59;-4.80;99.90
8099;DHT22;4092;47.876;9.372;2022-12-18T05:39:27;-4.70;99.90
8099;DHT22;4092;47.876;9.372;2022-12-18T05:41:54;-4.80;99.90
8099;DHT22;4092;47.876;9.372;2022-12-18T05:44:21;-4.80;99.90
8099;DHT22;4092;47.876;9.372;2022-12-18T05:46:48;-4.90;99.90
8099;DHT22;4092;47.876;9.372;2022-12-18T05:49:15;-4.90;99.90
8099;DHT22;4092;47.876;9.372;2022-12-18T05:51:42;-4.90;99.90
8099;DHT22;4092;47.876;9.372;2022-12-18T05:54:09;-4.90;99.90
8099;DHT22;4092;47.876;9.372;2022-12-18T05:56:38;-4.90;99.90
8099;DHT22;4092;47.876;9.372;2022-12-18T05:59:05;-5.00;99.90
8099;DHT22;4092;47.876;9.372;2022-12-18T06:01:32;-5.00;99.90
8099;DHT22;4092;47.876;9.372;2022-12-18T06:03:59;-5.00;99.90
8099;DHT22;4092;47.876;9.372;2022-12-18T06:06:27;-5.00;99.90
8099;DHT22;4092;47.876;9.372;2022-12-18T06:08:54;-5.00;99.90
8099;DHT22;4092;47.876;9.372;2022-12-18T06:11:23;-5.00;99.90
8099;DHT22;4092;47.876;9.372;2022-12-18T06:13:53;-5.00;99.90
8099;DHT22;4092;47.876;9.372;2022-12-18T06:16:20;-5.10;99.90
8099;DHT22;4092;47.876;9.372;2022-12-18T06:18:47;-5.00;99.90
8099;DHT22;4092;47.876;9.372;2022-12-18T06:21:14;-5.00;99.90
8099;DHT22;4092;47.876;9.372;2022-12-18T06:23:41;-5.00;99.90
8099;DHT22;4092;47.876;9.372;2022-12-18T06:26:10;-5.00;99.90
8099;DHT22;4092;47.876;9.372;2022-12-18T06:28:38;-5.00;99.90
8099;DHT22;4092;47.876;9.372;2022-12-18T06:31:06;-5.00;99.90
8099;DHT22;4092;47.876;9.372;2022-12-18T06:33:34;-5.00;99.90
8099;DHT22;4092;47.876;9.372;2022-12-18T06:36:03;-4.90;99.90
8099;DHT22;4092;47.876;9.372;2022-12-18T06:38:31;-4.90;99.90
8099;DHT22;4092;47.876;9.372;2022-12-18T06:41:00;-5.00;99.90
8099;DHT22;4092;47.876;9.372;2022-12-18T06:43:27;-5.00;99.90
8099;DHT22;4092;47.876;9.372;2022-12-18T06:45:58;-5.00;99.90
8099;DHT22;4092;47.876;9.372;2022-12-18T06:48:27;-5.00;99.90
8099;DHT22;4092;47.876;9.372;2022-12-18T06:50:54;-5.10;99.90
8099;DHT22;4092;47.876;9.372;2022-12-18T06:53:29;-5.10;99.90
8099;DHT22;4092;47.876;9.372;2022-12-18T06:56:00;-5.10;99.90
8099;DHT22;4092;47.876;9.372;2022-12-18T06:58:27;-5.00;99.90
8099;DHT22;4092;47.876;9.372;2022-12-18T07:00:59;-5.10;99.90
8099;DHT22;4092;47.876;9.372;2022-12-18T07:03:28;-5.00;99.90
8099;DHT22;4092;47.876;9.372;2022-12-18T07:06:03;-5.00;99.90
8099;DHT22;4092;47.876;9.372;2022-12-18T07:08:42;-5.00;99.90
8099;DHT22;4092;47.876;9.372;2022-12-18T07:11:15;-4.90;99.90
8099;DHT22;4092;47.876;9.372;2022-12-18T07:13:43;-4.80;99.90
8099;DHT22;4092;47.876;9.372;2022-12-18T07:16:13;-4.80;99.90
8099;DHT22;4092;47.876;9.372;2022-12-18T07:18:41;-4.80;99.90
8099;DHT22;4092;47.876;9.372;2022-12-18T07:21:14;-4.80;99.90
8099;DHT22;4092;47.876;9.372;2022-12-18T07:23:45;-4.80;99.90
8099;DHT22;4092;47.876;9.372;2022-12-18T07:26:18;-4.90;99.90
8099;DHT22;4092;47.876;9.372;2022-12-18T07:28:54;-4.90;99.90
8099;DHT22;4092;47.876;9.372;2022-12-18T07:31:22;-4.90;99.90
8099;DHT22;4092;47.876;9.372;2022-12-18T07:33:51;-5.00;99.90
8099;DHT22;4092;47.876;9.372;2022-12-18T07:36:18;-5.00;99.90
8099;DHT22;4092;47.876;9.372;2022-12-18T07:38:47;-5.00;99.90
8099;DHT22;4092;47.876;9.372;2022-12-18T07:41:16;-5.00;99.90
8099;DHT22;4092;47.876;9.372;2022-12-18T07:43:44;-5.10;99.90
8099;DHT22;4092;47.876;9.372;2022-12-18T07:46:13;-5.20;99.90
8099;DHT22;4092;47.876;9.372;2022-12-18T07:48:40;-5.20;99.90
8099;DHT22;4092;47.876;9.372;2022-12-18T07:51:09;-5.20;99.90
8099;DHT22;4092;47.876;9.372;2022-12-18T07:53:36;-5.00;99.90
8099;DHT22;4092;47.876;9.372;2022-12-18T07:56:05;-4.90;99.90
8099;DHT22;4092;47.876;9.372;2022-12-18T07:58:33;-4.80;99.90
8099;DHT22;4092;47.876;9.372;2022-12-18T08:01:04;-4.70;99.90
8099;DHT22;4092;47.876;9.372;2022-12-18T08:03:32;-4.70;99.90
8099;DHT22;4092;47.876;9.372;2022-12-18T08:06:00;-4.70;99.90
8099;DHT22;4092;47.876;9.372;2022-12-18T08:08:29;-4.70;99.90
8099;DHT22;4092;47.876;9.372;2022-12-18T08:10:57;-4.90;99.90
8099;DHT22;4092;47.876;9.372;2022-12-18T08:13:24;-4.90;99.90
8099;DHT22;4092;47.876;9.372;2022-12-18T08:15:59;-4.70;99.90
8099;DHT22;4092;47.876;9.372;2022-12-18T08:18:27;-4.70;99.90
8099;DHT22;4092;47.876;9.372;2022-12-18T08:20:54;-4.60;99.90
8099;DHT22;4092;47.876;9.372;2022-12-18T08:23:23;-4.50;99.90
8099;DHT22;4092;47.876;9.372;2022-12-18T08:25:51;-4.70;99.90
8099;DHT22;4092;47.876;9.372;2022-12-18T08:28:18;-4.70;99.90
8099;DHT22;4092;47.876;9.372;2022-12-18T08:30:46;-4.70;99.90
8099;DHT22;4092;47.876;9.372;2022-12-18T08:33:13;-4.90;99.90
8099;DHT22;4092;47.876;9.372;2022-12-18T08:35:40;-4.90;99.90
8099;DHT22;4092;47.876;9.372;2022-12-18T08:38:07;-4.80;99.90
8099;DHT22;4092;47.876;9.372;2022-12-18T08:40:34;-4.80;99.90
8099;DHT22;4092;47.876;9.372;2022-12-18T08:43:02;-4.80;99.90
8099;DHT22;4092;47.876;9.372;2022-12-18T08:45:55;-4.90;99.90
8099;DHT22;4092;47.876;9.372;2022-12-18T08:48:22;-4.80;99.90
8099;DHT22;4092;47.876;9.372;2022-12-18T08:50:54;-4.70;99.90
8099;DHT22;4092;47.876;9.372;2022-12-18T08:53:21;-4.70;99.90
8099;DHT22;4092;47.876;9.372;2022-12-18T08:55:48;-4.60;99.90
8099;DHT22;4092;47.876;9.372;2022-12-18T08:58:17;-4.60;99.90
8099;DHT22;4092;47.876;9.372;2022-12-18T09:00:44;-4.50;99.90
8099;DHT22;4092;47.876;9.372;2022-12-18T09:03:12;-4.50;99.90
8099;DHT22;4092;47.876;9.372;2022-12-18T09:05:39;-4.50;99.90
8099;DHT22;4092;47.876;9.372;2022-12-18T09:08:06;-4.50;99.90
8099;DHT22;4092;47.876;9.372;2022-12-18T09:10:33;-4.50;99.90
8099;DHT22;4092;47.876;9.372;2022-12-18T09:13:01;-4.50;99.90
8099;DHT22;4092;47.876;9.372;2022-12-18T09:15:29;-4.40;99.90
8099;DHT22;4092;47.876;9.372;2022-12-18T09:17:56;-4.30;99.90
8099;DHT22;4092;47.876;9.372;2022-12-18T09:20:23;-4.30;99.90
8099;DHT22;4092;47.876;9.372;2022-12-18T09:22:50;-4.20;99.90
8099;DHT22;4092;47.876;9.372;2022-12-18T09:25:17;-4.30;99.90
8099;DHT22;4092;47.876;9.372;2022-12-18T09:27:47;-4.40;99.90
8099;DHT22;4092;47.876;9.372;2022-12-18T09:30:14;-4.30;99.90
8099;DHT22;4092;47.876;9.372;2022-12-18T09:32:42;-4.30;99.90
8099;DHT22;4092;47.876;9.372;2022-12-18T09:35:09;-4.30;99.90
8099;DHT22;4092;47.876;9.372;2022-12-18T09:37:36;-4.20;99.90
8099;DHT22;4092;47.876;9.372;2022-12-18T09:40:04;-4.10;99.90
8099;DHT22;4092;47.876;9.372;2022-12-18T09:42:31;-4.00;99.90
8099;DHT22;4092;47.876;9.372;2022-12-18T09:44:58;-4.00;99.90
8099;DHT22;4092;47.876;9.372;2022-12-18T09:47:29;-3.90;99.90
8099;DHT22;4092;47.876;9.372;2022-12-18T09:50:01;-3.90;99.90
8099;DHT22;4092;47.876;9.372;2022-12-18T09:52:34;-3.90;99.90
8099;DHT22;4092;47.876;9.372;2022-12-18T09:55:08;-3.80;99.90
8099;DHT22;4092;47.876;9.372;2022-12-18T09:57:41;-3.80;99.90
8099;DHT22;4092;47.876;9.372;2022-12-18T10:00:16;-3.70;99.90
8099;DHT22;4092;47.876;9.372;2022-12-18T10:02:44;-3.70;99.90
8099;DHT22;4092;47.876;9.372;2022-12-18T10:05:18;-3.80;99.90
8099;DHT22;4092;47.876;9.372;2022-12-18T10:07:58;-3.80;99.90
8099;DHT22;4092;47.876;9.372;2022-12-18T10:10:34;-3.80;99.90
8099;DHT22;4092;47.876;9.372;2022-12-18T10:13:11;-3.70;99.90
8099;DHT22;4092;47.876;9.372;2022-12-18T10:15:49;-3.70;99.90
8099;DHT22;4092;47.876;9.372;2022-12-18T10:18:28;-3.70;99.90
8099;DHT22;4092;47.876;9.372;2022-12-18T10:21:05;-3.70;99.90
8099;DHT22;4092;47.876;9.372;2022-12-18T10:23:39;-3.70;99.90
8099;DHT22;4092;47.876;9.372;2022-12-18T10:26:10;-3.70;99.90
8099;DHT22;4092;47.876;9.372;2022-12-18T10:28:39;-3.60;99.90
8099;DHT22;4092;47.876;9.372;2022-12-18T10:31:07;-3.50;99.90
8099;DHT22;4092;47.876;9.372;2022-12-18T10:33:34;-3.40;99.90
8099;DHT22;4092;47.876;9.372;2022-12-18T10:36:13;-3.40;99.90
8099;DHT22;4092;47.876;9.372;2022-12-18T10:38:43;-3.50;99.90
8099;DHT22;4092;47.876;9.372;2022-12-18T10:41:24;-3.40;99.90
8099;DHT22;4092;47.876;9.372;2022-12-18T10:44:12;-3.50;99.90
8099;DHT22;4092;47.876;9.372;2022-12-18T10:46:41;-3.50;99.90
8099;DHT22;4092;47.876;9.372;2022-12-18T10:49:19;-3.30;99.90
8099;DHT22;4092;47.876;9.372;2022-12-18T10:51:49;-3.30;99.90
8099;DHT22;4092;47.876;9.372;2022-12-18T10:54:19;-3.30;99.90
8099;DHT22;4092;47.876;9.372;2022-12-18T10:56:49;-3.20;99.90
8099;DHT22;4092;47.876;9.372;2022-12-18T10:59:17;-3.10;99.90
8099;DHT22;4092;47.876;9.372;2022-12-18T11:01:52;-3.10;99.90
8099;DHT22;4092;47.876;9.372;2022-12-18T11:04:21;-3.10;99.90
8099;DHT22;4092;47.876;9.372;2022-12-18T11:06:58;-3.20;99.90
8099;DHT22;4092;47.876;9.372;2022-12-18T11:09:26;-3.20;99.90
8099;DHT22;4092;47.876;9.372;2022-12-18T11:11:55;-3.20;99.90
8099;DHT22;4092;47.876;9.372;2022-12-18T11:14:24;-3.30;99.90
8099;DHT22;4092;47.876;9.372;2022-12-18T11:16:52;-3.30;99.90
8099;DHT22;4092;47.876;9.372;2022-12-18T11:19:30;-3.30;99.90
8099;DHT22;4092;47.876;9.372;2022-12-18T11:22:00;-3.30;99.90
8099;DHT22;4092;47.876;9.372;2022-12-18T11:24:30;-3.20;99.90
8099;DHT22;4092;47.876;9.372;2022-12-18T11:26:59;-3.20;99.90
8099;DHT22;4092;47.876;9.372;2022-12-18T11:29:32;-3.10;99.90
8099;DHT22;4092;47.876;9.372;2022-12-18T11:35:15;-3.20;99.90
8099;DHT22;4092;47.876;9.372;2022-12-18T11:37:50;-3.10;99.90
8099;DHT22;4092;47.876;9.372;2022-12-18T11:40:24;-3.00;99.90
8099;DHT22;4092;47.876;9.372;2022-12-18T11:43:04;-2.80;99.90
8099;DHT22;4092;47.876;9.372;2022-12-18T11:45:35;-2.70;99.90
8099;DHT22;4092;47.876;9.372;2022-12-18T11:48:17;-2.60;99.90
8099;DHT22;4092;47.876;9.372;2022-12-18T11:50:49;-2.50;99.90
8099;DHT22;4092;47.876;9.372;2022-12-18T11:53:18;-2.40;99.90
8099;DHT22;4092;47.876;9.372;2022-12-18T11:56:02;-2.30;99.90
8099;DHT22;4092;47.876;9.372;2022-12-18T11:58:45;-2.20;99.90
8099;DHT22;4092;47.876;9.372;2022-12-18T12:01:21;-2.30;99.90
8099;DHT22;4092;47.876;9.372;2022-12-18T12:07:23;-2.60;99.90
8099;DHT22;4092;47.876;9.372;2022-12-18T12:10:00;-2.70;99.90
8099;DHT22;4092;47.876;9.372;2022-12-18T12:12:38;-2.70;99.90
8099;DHT22;4092;47.876;9.372;2022-12-18T12:15:25;-2.70;99.90
8099;DHT22;4092;47.876;9.372;2022-12-18T12:17:59;-2.50;99.90
8099;DHT22;4092;47.876;9.372;2022-12-18T12:20:37;-2.40;99.90
8099;DHT22;4092;47.876;9.372;2022-12-18T12:23:17;-2.30;99.90
8099;DHT22;4092;47.876;9.372;2022-12-18T12:25:50;-2.30;99.90
8099;DHT22;4092;47.876;9.372;2022-12-18T12:28:28;-2.30;99.90
8099;DHT22;4092;47.876;9.372;2022-12-18T12:31:06;-2.20;99.90
8099;DHT22;4092;47.876;9.372;2022-12-18T12:33:42;-2.10;99.90
8099;DHT22;4092;47.876;9.372;2022-12-18T12:36:18;-2.20;99.90
8099;DHT22;4092;47.876;9.372;2022-12-18T12:38:50;-2.30;99.90
8099;DHT22;4092;47.876;9.372;2022-12-18T12:41:23;-2.40;99.90
8099;DHT22;4092;47.876;9.372;2022-12-18T12:44:14;-2.60;99.90
8099;DHT22;4092;47.876;9.372;2022-12-18T12:46:44;-2.70;99.90
8099;DHT22;4092;47.876;9.372;2022-12-18T12:49:14;-3.10;99.90
8099;DHT22;4092;47.876;9.372;2022-12-18T12:51:43;-3.20;99.90
8099;DHT22;4092;47.876;9.372;2022-12-18T12:54:14;-3.00;99.90
8099;DHT22;4092;47.876;9.372;2022-12-18T12:56:47;-2.80;99.90
8099;DHT22;4092;47.876;9.372;2022-12-18T12:59:24;-2.70;99.90
8099;DHT22;4092;47.876;9.372;2022-12-18T13:01:59;-2.60;99.90
8099;DHT22;4092;47.876;9.372;2022-12-18T13:04:31;-2.70;99.90
8099;DHT22;4092;47.876;9.372;2022-12-18T13:07:03;-2.50;99.90
8099;DHT22;4092;47.876;9.372;2022-12-18T13:09:32;-2.40;99.90
8099;DHT22;4092;47.876;9.372;2022-12-18T13:12:04;-2.30;99.90
8099;DHT22;4092;47.876;9.372;2022-12-18T13:14:49;-2.30;99.90
8099;DHT22;4092;47.876;9.372;2022-12-18T13:17:29;-2.40;99.90
8099;DHT22;4092;47.876;9.372;2022-12-18T13:20:09;-2.30;99.90
8099;DHT22;4092;47.876;9.372;2022-12-18T13:22:45;-2.30;99.90
8099;DHT22;4092;47.876;9.372;2022-12-18T13:25:32;-2.30;99.90
8099;DHT22;4092;47.876;9.372;2022-12-18T13:28:07;-2.30;99.90
8099;DHT22;4092;47.876;9.372;2022-12-18T13:30:52;-2.20;99.90
8099;DHT22;4092;47.876;9.372;2022-12-18T13:33:49;-2.40;99.90
8099;DHT22;4092;47.876;9.372;2022-12-18T13:36:31;-2.40;99.90
8099;DHT22;4092;47.876;9.372;2022-12-18T13:39:32;-2.50;99.90
8099;DHT22;4092;47.876;9.372;2022-12-18T13:42:38;-2.40;99.90
8099;DHT22;4092;47.876;9.372;2022-12-18T13:45:39;-2.40;99.90
8099;DHT22;4092;47.876;9.372;2022-12-18T13:48:18;-2.30;99.90
8099;DHT22;4092;47.876;9.372;2022-12-18T13:50:49;-2.30;99.90
8099;DHT22;4092;47.876;9.372;2022-12-18T13:53:21;-2.30;99.90
8099;DHT22;4092;47.876;9.372;2022-12-18T13:55:49;-2.30;99.90
8099;DHT22;4092;47.876;9.372;2022-12-18T13:58:17;-2.30;99.90
8099;DHT22;4092;47.876;9.372;2022-12-18T14:00:45;-2.40;99.90
8099;DHT22;4092;47.876;9.372;2022-12-18T14:03:19;-2.40;99.90
8099;DHT22;4092;47.876;9.372;2022-12-18T14:05:56;-2.50;99.90
8099;DHT22;4092;47.876;9.372;2022-12-18T14:11:49;-2.80;99.90
8099;DHT22;4092;47.876;9.372;2022-12-18T14:14:17;-2.80;99.90
8099;DHT22;4092;47.876;9.372;2022-12-18T14:16:46;-2.80;99.90
8099;DHT22;4092;47.876;9.372;2022-12-18T14:19:15;-2.90;99.90
8099;DHT22;4092;47.876;9.372;2022-12-18T14:21:46;-3.10;99.90
8099;DHT22;4092;47.876;9.372;2022-12-18T14:24:15;-3.20;99.90
8099;DHT22;4092;47.876;9.372;2022-12-18T14:26:42;-3.10;99.90
8099;DHT22;4092;47.876;9.372;2022-12-18T14:29:22;-3.00;99.90
8099;DHT22;4092;47.876;9.372;2022-12-18T14:32:08;-3.20;99.90
8099;DHT22;4092;47.876;9.372;2022-12-18T14:34:36;-3.40;99.90
8099;DHT22;4092;47.876;9.372;2022-12-18T14:37:03;-3.20;99.90
8099;DHT22;4092;47.876;9.372;2022-12-18T14:39:30;-3.20;99.90
8099;DHT22;4092;47.876;9.372;2022-12-18T14:41:57;-3.30;99.90
8099;DHT22;4092;47.876;9.372;2022-12-18T14:44:24;-3.60;99.90
8099;DHT22;4092;47.876;9.372;2022-12-18T14:46:51;-3.70;99.90
8099;DHT22;4092;47.876;9.372;2022-12-18T14:49:23;-3.60;99.90
8099;DHT22;4092;47.876;9.372;2022-12-18T14:51:53;-3.60;99.90
8099;DHT22;4092;47.876;9.372;2022-12-18T14:54:22;-3.50;99.90
8099;DHT22;4092;47.876;9.372;2022-12-18T14:56:51;-3.40;99.90
8099;DHT22;4092;47.876;9.372;2022-12-18T14:59:23;-3.40;99.90
8099;DHT22;4092;47.876;9.372;2022-12-18T15:01:58;-3.40;99.90
8099;DHT22;4092;47.876;9.372;2022-12-18T15:04:30;-3.40;99.90
8099;DHT22;4092;47.876;9.372;2022-12-18T15:07:13;-3.50;99.90
8099;DHT22;4092;47.876;9.372;2022-12-18T15:09:42;-3.60;99.90
8099;DHT22;4092;47.876;9.372;2022-12-18T15:12:26;-3.30;99.90
8099;DHT22;4092;47.876;9.372;2022-12-18T15:14:56;-3.30;99.90
8099;DHT22;4092;47.876;9.372;2022-12-18T15:17:24;-3.40;99.90
8099;DHT22;4092;47.876;9.372;2022-12-18T15:19:58;-3.50;99.90
8099;DHT22;4092;47.876;9.372;2022-12-18T15:22:27;-3.50;99.90
8099;DHT22;4092;47.876;9.372;2022-12-18T15:24:55;-3.60;99.90
8099;DHT22;4092;47.876;9.372;2022-12-18T15:27:25;-3.60;99.90
8099;DHT22;4092;47.876;9.372;2022-12-18T15:30:15;-3.70;99.90
8099;DHT22;4092;47.876;9.372;2022-12-18T15:32:44;-3.70;99.90
8099;DHT22;4092;47.876;9.372;2022-12-18T15:35:15;-3.70;99.90
8099;DHT22;4092;47.876;9.372;2022-12-18T15:37:47;-3.80;99.90
8099;DHT22;4092;47.876;9.372;2022-12-18T15:40:15;-3.80;99.90
8099;DHT22;4092;47.876;9.372;2022-12-18T15:42:42;-3.80;99.90
8099;DHT22;4092;47.876;9.372;2022-12-18T15:45:27;-3.80;99.90
8099;DHT22;4092;47.876;9.372;2022-12-18T15:47:55;-3.70;99.90
8099;DHT22;4092;47.876;9.372;2022-12-18T15:50:24;-3.60;99.90
8099;DHT22;4092;47.876;9.372;2022-12-18T15:52:53;-3.60;99.90
8099;DHT22;4092;47.876;9.372;2022-12-18T15:55:22;-3.50;99.90
8099;DHT22;4092;47.876;9.372;2022-12-18T15:58:08;-3.50;99.90
8099;DHT22;4092;47.876;9.372;2022-12-18T16:00:38;-3.50;99.90
8099;DHT22;4092;47.876;9.372;2022-12-18T16:03:05;-3.70;99.90
8099;DHT22;4092;47.876;9.372;2022-12-18T16:05:34;-3.80;99.90
8099;DHT22;4092;47.876;9.372;2022-12-18T16:08:01;-3.80;99.90
8099;DHT22;4092;47.876;9.372;2022-12-18T16:10:28;-3.80;99.90
8099;DHT22;4092;47.876;9.372;2022-12-18T16:12:55;-3.70;99.90
8099;DHT22;4092;47.876;9.372;2022-12-18T16:15:23;-3.70;99.90
8099;DHT22;4092;47.876;9.372;2022-12-18T16:17:50;-3.70;99.90
8099;DHT22;4092;47.876;9.372;2022-12-18T16:20:18;-3.70;99.90
8099;DHT22;4092;47.876;9.372;2022-12-18T16:22:48;-3.60;99.90
8099;DHT22;4092;47.876;9.372;2022-12-18T16:25:18;-3.60;99.90
8099;DHT22;4092;47.876;9.372;2022-12-18T16:27:50;-3.60;99.90
8099;DHT22;4092;47.876;9.372;2022-12-18T16:30:19;-3.60;99.90
8099;DHT22;4092;47.876;9.372;2022-12-18T16:32:46;-3.60;99.90
8099;DHT22;4092;47.876;9.372;2022-12-18T16:35:14;-3.50;99.90
8099;DHT22;4092;47.876;9.372;2022-12-18T16:37:42;-3.50;99.90